Time;durP1;ratioP1;P1;durP2;ratioP2;P2;SDS_P1;SDS_P2;PMS_P1;PMS_P2;Temp;Humidity;BMP_temperature;BMP_pressure;BME280_temperature;BME280_humidity;BME280_pressure;Samples;Min_cycle;Max_cycle;Signal;HPM_P1;HPM_P2
2022/01/15 00:00:15;;;;;;;;;;;;;;;0.52;100.00;100437.47;5074410;28;19924;-73
2022/01/15 00:02:42;;;;;;;;;;;;;;;0.80;100.00;100427.75;5074703;28;19924;-73
2022/01/15 00:05:09;;;;;;;;;;;;;;;0.96;100.00;100422.50;5074707;28;19978;-73
2022/01/15 00:07:38;;;;;;;;;;;;;;;1.01;100.00;100425.09;5074553;28;19971;-73
2022/01/15 00:10:06;;;;;;;;;;;;;;;0.96;100.00;100423.34;5074409;28;20015;-73
2022/01/15 00:12:40;;;;;;;;;;;;;;;1.01;100.00;100420.41;5073223;28;19978;-73
2022/01/15 00:15:11;;;;;;;;;;;;;;;1.02;100.00;100415.69;5073130;28;20010;-73
2022/01/15 00:20:16;;;;;;;;;;;;;;;1.08;100.00;100415.19;5056008;28;19925;-73
2022/01/15 00:22:43;;;;;;;;;;;;;;;0.97;100.00;100405.66;5089292;28;19930;-73
2022/01/15 00:25:11;;;;;;;;;;;;;;;0.51;100.00;100407.53;5063644;28;19925;-73
2022/01/15 00:27:39;;;;;;;;;;;;;;;0.36;100.00;100408.84;5052280;28;19960;-73
2022/01/15 00:30:07;;;;;;;;;;;;;;;0.61;100.00;100405.25;5053524;28;19956;-73
2022/01/15 00:32:34;;;;;;;;;;;;;;;0.63;100.00;100389.25;5054195;28;19924;-73
2022/01/15 00:35:03;;;;;;;;;;;;;;;0.63;100.00;100392.00;5086184;28;19986;-72
2022/01/15 00:37:31;;;;;;;;;;;;;;;0.75;100.00;100392.13;5036273;28;19993;-73
2022/01/15 00:39:59;;;;;;;;;;;;;;;0.82;100.00;100386.94;5054131;28;19932;-73
2022/01/15 00:42:27;;;;;;;;;;;;;;;0.72;100.00;100384.53;5036249;28;20288;-72
2022/01/15 00:44:56;;;;;;;;;;;;;;;0.77;100.00;100383.56;5053940;28;19948;-73
2022/01/15 00:47:25;;;;;;;;;;;;;;;0.75;100.00;100367.38;5054071;28;19931;-73
2022/01/15 00:49:53;;;;;;;;;;;;;;;0.79;100.00;100376.56;5053911;28;20353;-73
2022/01/15 00:52:19;;;;;;;;;;;;;;;0.78;100.00;100377.72;5035934;28;19971;-73
2022/01/15 00:54:47;;;;;;;;;;;;;;;0.57;100.00;100368.53;5052783;28;20269;-72
2022/01/15 00:57:14;;;;;;;;;;;;;;;0.41;100.00;100372.91;5053593;28;20433;-73
2022/01/15 00:59:41;;;;;;;;;;;;;;;0.44;100.00;100365.97;5053726;28;20265;-73
2022/01/15 01:02:09;;;;;;;;;;;;;;;0.56;100.00;100369.66;5053802;28;20021;-73
2022/01/15 01:04:35;;;;;;;;;;;;;;;0.60;100.00;100365.13;5052649;28;20421;-73
2022/01/15 01:07:03;;;;;;;;;;;;;;;0.66;100.00;100354.75;5052639;28;19924;-73
2022/01/15 01:09:56;;;;;;;;;;;;;;;0.72;100.00;100362.53;5069079;28;20260;-73
2022/01/15 01:23:03;;;;;;;;;;;;;;;0.64;100.00;100344.09;5053629;28;19964;-73
2022/01/15 01:25:37;;;;;;;;;;;;;;;0.68;100.00;100336.78;5066416;28;20288;-73
2022/01/15 01:28:10;;;;;;;;;;;;;;;0.72;100.00;100329.50;5074183;28;19960;-73
2022/01/15 01:30:46;;;;;;;;;;;;;;;0.78;100.00;100325.44;5076168;28;20488;-73
2022/01/15 01:33:29;;;;;;;;;;;;;;;0.74;100.00;100329.19;5077564;28;20024;-72
2022/01/15 01:36:41;;;;;;;;;;;;;;;0.42;100.00;100322.31;5059963;28;19964;-72
2022/01/15 01:39:17;;;;;;;;;;;;;;;0.61;100.00;100321.91;5077291;28;19932;-72
2022/01/15 01:42:03;;;;;;;;;;;;;;;0.68;100.00;100322.25;5077026;28;19932;-73
2022/01/15 01:44:31;;;;;;;;;;;;;;;0.77;100.00;100312.03;5076001;28;19928;-73
2022/01/15 01:47:05;;;;;;;;;;;;;;;0.82;100.00;100307.13;5077167;28;19928;-72
2022/01/15 01:49:32;;;;;;;;;;;;;;;0.81;100.00;100311.03;5075864;28;20330;-73
2022/01/15 01:52:02;;;;;;;;;;;;;;;0.74;100.00;100305.25;5076898;28;19924;-73
2022/01/15 01:54:30;;;;;;;;;;;;;;;0.70;100.00;100298.75;5077036;28;20376;-73
2022/01/15 01:56:57;;;;;;;;;;;;;;;0.70;100.00;100298.75;5076723;28;20020;-72
2022/01/15 01:59:27;;;;;;;;;;;;;;;0.76;100.00;100293.91;5077024;28;19925;-73
2022/01/15 02:01:55;;;;;;;;;;;;;;;0.77;100.00;100288.06;5075697;28;20360;-72
2022/01/15 02:04:22;;;;;;;;;;;;;;;0.60;100.00;100284.56;5075635;28;20372;-72
2022/01/15 02:06:50;;;;;;;;;;;;;;;0.10;100.00;100284.34;5075604;28;20334;-72
2022/01/15 02:09:20;;;;;;;;;;;;;;;0.29;100.00;100284.78;5058580;28;20398;-72
2022/01/15 02:11:47;;;;;;;;;;;;;;;0.26;100.00;100277.19;5076646;28;19925;-73
2022/01/15 02:14:27;;;;;;;;;;;;;;;0.28;100.00;100277.69;5076667;28;20409;-72
2022/01/15 02:16:55;;;;;;;;;;;;;;;0.41;100.00;100270.38;5075374;28;19974;-72
2022/01/15 02:19:28;;;;;;;;;;;;;;;0.45;100.00;100269.41;5109112;28;20290;-72
2022/01/15 02:24:41;;;;;;;;;;;;;;;0.29;100.00;100260.03;5069058;28;19925;-72
2022/01/15 02:27:08;;;;;;;;;;;;;;;0.36;100.00;100260.38;5055253;28;20020;-72
2022/01/15 02:29:35;;;;;;;;;;;;;;;0.42;100.00;100253.56;5055150;28;19924;-73
2022/01/15 02:32:08;;;;;;;;;;;;;;;0.08;100.00;100250.09;5056191;28;20017;-73
2022/01/15 02:34:53;;;;;;;;;;;;;;;0.36;100.00;100246.63;5056009;28;19925;-72
2022/01/15 02:37:20;;;;;;;;;;;;;;;0.36;100.00;100249.38;5056065;28;19925;-73
2022/01/15 02:39:48;;;;;;;;;;;;;;;0.45;100.00;100252.91;5053921;28;19935;-73
2022/01/15 02:42:15;;;;;;;;;;;;;;;0.54;100.00;100245.44;5056084;28;20323;-73
2022/01/15 02:44:43;;;;;;;;;;;;;;;0.34;100.00;100239.81;5071337;28;19956;-72
2022/01/15 02:49:56;;;;;;;;;;;;;;;0.50;100.00;100238.94;5071422;28;19932;-72
2022/01/15 02:52:23;;;;;;;;;;;;;;;0.55;100.00;100241.53;5054594;28;20330;-73
2022/01/15 02:54:50;;;;;;;;;;;;;;;0.48;100.00;100233.00;5054325;28;19931;-72
2022/01/15 02:57:17;;;;;;;;;;;;;;;0.44;100.00;100229.28;5055605;28;19935;-73
2022/01/15 02:59:45;;;;;;;;;;;;;;;0.44;100.00;100225.72;5055800;28;19925;-72
2022/01/15 03:02:12;;;;;;;;;;;;;;;0.48;100.00;100216.50;5055755;28;19932;-73
2022/01/15 03:04:43;;;;;;;;;;;;;;;0.51;100.00;100215.84;5055774;28;19931;-72
2022/01/15 03:07:10;;;;;;;;;;;;;;;0.50;100.00;100208.69;5055407;28;19925;-72
2022/01/15 03:09:40;;;;;;;;;;;;;;;0.27;100.00;100201.84;5054256;28;19929;-72
2022/01/15 03:12:08;;;;;;;;;;;;;;;0.20;100.00;100200.75;5055788;28;19925;-72
2022/01/15 03:14:35;;;;;;;;;;;;;;;0.37;100.00;100198.72;5070809;28;19925;-72
2022/01/15 03:17:03;;;;;;;;;;;;;;;0.44;100.00;100190.00;5054250;28;20016;-73
2022/01/15 03:19:39;;;;;;;;;;;;;;;0.33;100.00;100192.28;5055398;28;19932;-73
2022/01/15 03:22:06;;;;;;;;;;;;;;;0.38;100.00;100191.31;5055103;28;19925;-72
2022/01/15 03:24:33;;;;;;;;;;;;;;;0.40;100.00;100184.34;5060150;28;19928;-72
2022/01/15 03:27:00;;;;;;;;;;;;;;;0.41;100.00;100179.66;5075254;28;19924;-73
2022/01/15 03:29:27;;;;;;;;;;;;;;;0.49;100.00;100176.84;5069015;28;19924;-72
2022/01/15 03:31:55;;;;;;;;;;;;;;;0.49;100.00;100178.78;5072277;28;19925;-72
2022/01/15 03:34:22;;;;;;;;;;;;;;;0.47;100.00;100170.06;5073806;28;20399;-72
2022/01/15 03:36:49;;;;;;;;;;;;;;;0.22;100.00;100170.97;5074857;28;20000;-72
2022/01/15 03:39:16;;;;;;;;;;;;;;;0.14;100.00;100164.38;5090147;28;19924;-72
2022/01/15 03:41:44;;;;;;;;;;;;;;;0.32;100.00;100165.13;5074955;28;20295;-72
2022/01/15 03:44:11;;;;;;;;;;;;;;;0.14;100.00;100163.56;5107186;28;19968;-72
2022/01/15 03:46:39;;;;;;;;;;;;;;;-0.05;100.00;100161.19;5074660;28;19938;-72
2022/01/15 03:49:06;;;;;;;;;;;;;;;0.22;100.00;100160.78;5074946;28;19925;-72
2022/01/15 03:51:33;;;;;;;;;;;;;;;0.32;100.00;100160.41;5073475;28;20011;-72
2022/01/15 03:53:59;;;;;;;;;;;;;;;0.19;100.00;100155.94;5074533;28;19977;-72
2022/01/15 03:56:26;;;;;;;;;;;;;;;0.20;100.00;100152.06;5074702;28;19925;-72
2022/01/15 03:58:53;;;;;;;;;;;;;;;0.33;100.00;100150.25;5073282;28;20015;-72
2022/01/15 04:01:20;;;;;;;;;;;;;;;0.35;100.00;100147.97;5073282;28;19925;-72
2022/01/15 04:03:47;;;;;;;;;;;;;;;0.41;100.00;100147.44;5056803;28;19931;-72
2022/01/15 04:06:14;;;;;;;;;;;;;;;0.43;100.00;100136.94;5072988;28;19924;-72
2022/01/15 04:08:41;;;;;;;;;;;;;;;0.44;100.00;100133.03;5074356;28;19924;-72
2022/01/15 04:11:08;;;;;;;;;;;;;;;0.43;100.00;100131.41;5074324;28;20379;-72
2022/01/15 04:13:35;;;;;;;;;;;;;;;0.38;100.00;100126.09;5074304;28;20244;-72
2022/01/15 04:16:02;;;;;;;;;;;;;;;0.40;100.00;100123.03;5073067;28;19928;-72
2022/01/15 04:18:36;;;;;;;;;;;;;;;0.42;100.00;100118.00;5074025;28;19931;-72
2022/01/15 04:21:03;;;;;;;;;;;;;;;0.41;100.00;100113.66;5088546;28;20394;-72
2022/01/15 04:23:30;;;;;;;;;;;;;;;0.39;100.00;100103.00;5073067;28;19939;-72
2022/01/15 04:25:57;;;;;;;;;;;;;;;0.40;100.00;100101.84;5072884;28;19924;-72
2022/01/15 04:28:24;;;;;;;;;;;;;;;0.40;100.00;100101.03;5072856;28;19925;-72
2022/01/15 04:30:52;;;;;;;;;;;;;;;0.18;100.00;100077.38;5072889;28;20011;-72
2022/01/15 04:33:19;;;;;;;;;;;;;;;0.06;100.00;100085.53;5072790;28;19975;-72
2022/01/15 04:35:46;;;;;;;;;;;;;;;0.06;100.00;100070.97;5072654;28;19924;-72
2022/01/15 04:38:14;;;;;;;;;;;;;;;0.23;100.00;100070.91;5073890;28;19946;-71
2022/01/15 04:40:41;;;;;;;;;;;;;;;0.26;100.00;100068.28;5073932;28;20013;-72
2022/01/15 04:43:08;;;;;;;;;;;;;;;0.25;100.00;100065.84;5072751;28;19924;-72
2022/01/15 04:45:35;;;;;;;;;;;;;;;0.31;100.00;100068.09;5073939;28;19924;-72
2022/01/15 04:48:02;;;;;;;;;;;;;;;0.36;100.00;100067.91;5072785;28;20020;-72
2022/01/15 04:50:29;;;;;;;;;;;;;;;0.28;100.00;100066.00;5073602;28;20031;-72
2022/01/15 04:52:56;;;;;;;;;;;;;;;0.33;100.00;100060.31;5073707;28;20023;-72
2022/01/15 04:55:23;;;;;;;;;;;;;;;0.37;100.00;100058.50;5072635;28;19924;-72
2022/01/15 04:57:50;;;;;;;;;;;;;;;0.29;100.00;100056.59;5072244;28;20019;-72
2022/01/15 05:00:18;;;;;;;;;;;;;;;0.20;100.00;100053.09;5055303;28;20390;-72
2022/01/15 05:02:45;;;;;;;;;;;;;;;-0.04;100.00;100047.41;5071757;28;20339;-72
2022/01/15 05:05:13;;;;;;;;;;;;;;;-0.10;100.00;100043.22;5072108;28;19977;-73
2022/01/15 05:07:41;;;;;;;;;;;;;;;0.02;100.00;100048.03;5054720;28;19925;-73
2022/01/15 05:10:09;;;;;;;;;;;;;;;0.03;100.00;100035.91;5055265;28;19928;-72
2022/01/15 05:12:44;;;;;;;;;;;;;;;0.08;100.00;100033.75;5073671;28;20022;-72
2022/01/15 05:15:12;;;;;;;;;;;;;;;-0.21;100.00;100033.72;5072601;28;19931;-72
2022/01/15 05:17:39;;;;;;;;;;;;;;;-0.10;100.00;100032.25;5071998;28;20027;-72
2022/01/15 05:20:07;;;;;;;;;;;;;;;-0.26;100.00;100029.22;5072501;28;20016;-72
2022/01/15 05:22:34;;;;;;;;;;;;;;;-0.37;100.00;100038.16;5105799;28;20036;-72
2022/01/15 05:25:02;;;;;;;;;;;;;;;-0.02;100.00;100036.91;5063508;28;19932;-72
2022/01/15 05:27:30;;;;;;;;;;;;;;;0.12;100.00;100032.00;5053611;28;19931;-72
2022/01/15 05:29:57;;;;;;;;;;;;;;;0.14;100.00;100032.44;5053454;28;19929;-71
2022/01/15 05:32:24;;;;;;;;;;;;;;;0.08;100.00;100035.72;5052105;28;19979;-72
2022/01/15 05:34:51;;;;;;;;;;;;;;;0.11;100.00;100033.09;5053608;28;19924;-72
2022/01/15 05:37:18;;;;;;;;;;;;;;;0.15;100.00;100027.75;5053063;28;19929;-72
2022/01/15 05:39:45;;;;;;;;;;;;;;;0.23;100.00;100024.94;5059671;28;20369;-72
2022/01/15 05:42:12;;;;;;;;;;;;;;;0.17;100.00;100020.78;5073309;28;20024;-72
2022/01/15 05:44:39;;;;;;;;;;;;;;;-0.39;100.00;100023.94;5073412;28;20027;-72
2022/01/15 05:47:07;;;;;;;;;;;;;;;-0.05;100.00;100018.31;5073187;28;19931;-72
2022/01/15 05:49:34;;;;;;;;;;;;;;;0.06;100.00;100019.56;5088904;28;20399;-72
2022/01/15 05:52:02;;;;;;;;;;;;;;;0.03;100.00;100021.03;5065945;28;20308;-72
2022/01/15 05:54:29;;;;;;;;;;;;;;;0.13;100.00;100017.09;5053209;28;19936;-72
2022/01/15 05:56:56;;;;;;;;;;;;;;;0.15;100.00;100023.06;5053324;28;20007;-72
2022/01/15 05:59:23;;;;;;;;;;;;;;;0.16;100.00;100019.19;5053014;28;19931;-72
2022/01/15 06:01:50;;;;;;;;;;;;;;;0.17;100.00;100015.28;5051858;28;20036;-72
2022/01/15 06:04:17;;;;;;;;;;;;;;;0.17;100.00;100020.78;5051884;28;19925;-72
2022/01/15 06:06:45;;;;;;;;;;;;;;;0.12;100.00;100011.94;5035390;28;19925;-72
2022/01/15 06:09:12;;;;;;;;;;;;;;;0.08;100.00;100011.78;5053273;28;20458;-72
2022/01/15 06:11:40;;;;;;;;;;;;;;;-0.03;100.00;100007.78;5052122;28;19974;-72
2022/01/15 06:14:07;;;;;;;;;;;;;;;-0.05;100.00;100012.81;5035847;28;19925;-72
2022/01/15 06:16:34;;;;;;;;;;;;;;;-0.05;100.00;99999.88;5056553;28;19928;-72
2022/01/15 06:19:02;;;;;;;;;;;;;;;0.00;100.00;100004.41;5088723;28;19931;-72
2022/01/15 06:21:29;;;;;;;;;;;;;;;-0.30;100.00;100000.00;5056559;28;20023;-71
2022/01/15 06:23:56;;;;;;;;;;;;;;;-0.43;100.00;99996.34;5056806;28;19932;-72
2022/01/15 06:26:23;;;;;;;;;;;;;;;-0.17;100.00;100004.47;5038853;28;19925;-72
2022/01/15 06:28:49;;;;;;;;;;;;;;;-0.46;100.00;100005.25;5056452;28;20017;-72
2022/01/15 06:31:17;;;;;;;;;;;;;;;-0.43;100.00;100006.53;5056219;28;19931;-72
2022/01/15 06:33:45;;;;;;;;;;;;;;;-0.18;100.00;100003.66;5088676;28;19924;-72
2022/01/15 06:36:12;;;;;;;;;;;;;;;-0.14;100.00;100006.56;5056418;28;19925;-72
2022/01/15 06:38:39;;;;;;;;;;;;;;;-0.13;100.00;100010.91;5055076;28;19928;-72
2022/01/15 06:41:06;;;;;;;;;;;;;;;-0.11;100.00;100014.16;5076355;28;19999;-72
2022/01/15 06:43:33;;;;;;;;;;;;;;;-0.11;100.00;100003.16;5075114;28;19975;-72
2022/01/15 06:46:00;;;;;;;;;;;;;;;-0.19;100.00;99995.75;5075894;28;19925;-72
2022/01/15 06:48:29;;;;;;;;;;;;;;;-0.11;100.00;100000.41;5091584;28;19924;-72
2022/01/15 06:50:56;;;;;;;;;;;;;;;-0.12;100.00;99993.28;5075682;28;19978;-72
2022/01/15 06:53:23;;;;;;;;;;;;;;;-0.35;100.00;99992.75;5074948;28;19924;-72
2022/01/15 06:55:52;;;;;;;;;;;;;;;-0.54;100.00;99994.28;5057989;28;20462;-72
2022/01/15 06:58:25;;;;;;;;;;;;;;;-0.48;100.00;99988.28;5075727;28;19925;-73
2022/01/15 07:00:53;;;;;;;;;;;;;;;-0.41;100.00;99993.28;5074687;28;19948;-72
2022/01/15 07:03:20;;;;;;;;;;;;;;;-0.38;100.00;99998.13;5054769;28;19925;-72
2022/01/15 07:05:47;;;;;;;;;;;;;;;-0.55;100.00;99984.44;5034763;28;19932;-72
2022/01/15 07:08:15;;;;;;;;;;;;;;;-0.54;100.00;99980.56;5047876;28;19929;-72
2022/01/15 07:10:44;;;;;;;;;;;;;;;-0.64;100.00;99986.41;5051761;28;19925;-72
2022/01/15 07:13:12;;;;;;;;;;;;;;;-0.50;100.00;99984.28;5064608;28;20330;-73
2022/01/15 07:15:39;;;;;;;;;;;;;;;-0.40;100.00;99978.41;5073728;28;19935;-73
2022/01/15 07:18:06;;;;;;;;;;;;;;;-0.35;100.00;99981.75;5070235;28;20315;-73
2022/01/15 07:20:33;;;;;;;;;;;;;;;-0.56;100.00;99988.34;5054973;28;19925;-73
2022/01/15 07:23:00;;;;;;;;;;;;;;;-0.54;100.00;99980.56;5055219;28;19931;-73
2022/01/15 07:25:27;;;;;;;;;;;;;;;-0.48;100.00;99979.22;5054922;28;19932;-73
2022/01/15 07:27:54;;;;;;;;;;;;;;;-1.01;100.00;99973.41;5070309;28;19929;-73
2022/01/15 07:30:23;;;;;;;;;;;;;;;-0.65;100.00;99976.56;5037139;28;19925;-73
2022/01/15 07:32:51;;;;;;;;;;;;;;;-0.56;100.00;99988.34;5054738;28;19925;-73
2022/01/15 07:35:19;;;;;;;;;;;;;;;-0.47;100.00;99989.09;5072135;28;20023;-73
2022/01/15 07:37:46;;;;;;;;;;;;;;;-0.47;100.00;99983.63;5057929;28;19978;-73
2022/01/15 07:40:13;;;;;;;;;;;;;;;-0.53;100.00;99988.47;5054793;28;19925;-73
2022/01/15 07:42:40;;;;;;;;;;;;;;;-0.89;100.00;99993.56;5054901;28;20010;-73
2022/01/15 07:45:13;;;;;;;;;;;;;;;-1.13;100.00;99976.00;5073474;28;19932;-73
2022/01/15 07:47:41;;;;;;;;;;;;;;;-0.80;100.00;99991.59;5074805;28;19925;-73
2022/01/15 07:50:13;;;;;;;;;;;;;;;-0.71;100.00;99984.16;5073544;28;20023;-73
2022/01/15 07:52:40;;;;;;;;;;;;;;;-0.72;100.00;99976.25;5074517;28;19924;-73
2022/01/15 07:55:08;;;;;;;;;;;;;;;-1.38;100.00;99979.59;5073404;28;19956;-76
2022/01/15 07:57:51;;;;;;;;;;;;;;;-0.82;100.00;99974.66;5071982;28;20373;-72
2022/01/15 08:00:18;;;;;;;;;;;;;;;-0.79;100.00;99975.97;5074427;28;20028;-71
2022/01/15 08:02:50;;;;;;;;;;;;;;;-0.81;100.00;99990.00;5056766;28;20302;-72
2022/01/15 08:05:17;;;;;;;;;;;;;;;-0.76;100.00;99994.50;5106384;28;19956;-72
2022/01/15 08:07:45;;;;;;;;;;;;;;;-0.67;100.00;99995.28;5074197;28;19978;-74
2022/01/15 08:10:12;;;;;;;;;;;;;;;-0.64;100.00;99995.47;5049094;28;19924;-77
2022/01/15 08:12:47;;;;;;;;;;;;;;;-1.20;100.00;99992.16;5054750;28;19950;-72
2022/01/15 08:15:15;;;;;;;;;;;;;;;-1.67;100.00;99985.72;5065253;28;20398;-73
2022/01/15 08:17:42;;;;;;;;;;;;;;;-1.10;100.00;99981.66;5073638;28;20061;-72
2022/01/15 08:20:09;;;;;;;;;;;;;;;-0.91;100.00;99978.56;5074062;28;20311;-72
2022/01/15 08:22:39;;;;;;;;;;;;;;;-0.78;100.00;99972.88;5056649;28;19968;-72
2022/01/15 08:25:07;;;;;;;;;;;;;;;-0.92;100.00;99972.25;5072836;28;19924;-72
2022/01/15 08:27:35;;;;;;;;;;;;;;;-0.72;100.00;99965.28;5073597;28;19932;-72
2022/01/15 08:30:04;;;;;;;;;;;;;;;-0.57;100.00;99967.47;5072625;28;19964;-72
2022/01/15 08:32:31;;;;;;;;;;;;;;;-0.56;100.00;99966.38;5089337;28;20282;-72
2022/01/15 08:34:58;;;;;;;;;;;;;;;-0.53;100.00;99966.50;5072959;28;20366;-74
2022/01/15 08:37:25;;;;;;;;;;;;;;;-0.62;100.00;99948.47;5079764;28;19932;-73
2022/01/15 08:39:53;;;;;;;;;;;;;;;-0.51;100.00;99955.19;5049643;28;19928;-74
2022/01/15 08:42:20;;;;;;;;;;;;;;;-0.52;100.00;99959.06;5064172;28;19963;-73
2022/01/15 08:44:47;;;;;;;;;;;;;;;-0.44;100.00;99956.28;5069574;28;19990;-73
2022/01/15 08:47:14;;;;;;;;;;;;;;;-0.36;100.00;99951.88;5073376;28;19928;-73
2022/01/15 08:49:41;;;;;;;;;;;;;;;-0.35;100.00;99943.31;5087832;28;19974;-72
2022/01/15 08:52:08;;;;;;;;;;;;;;;-0.49;100.00;99936.44;5072148;28;20276;-72
2022/01/15 08:54:35;;;;;;;;;;;;;;;-0.30;100.00;99940.41;5071036;28;19924;-72
2022/01/15 08:57:02;;;;;;;;;;;;;;;-0.33;100.00;99937.50;5071851;28;19968;-72
2022/01/15 08:59:30;;;;;;;;;;;;;;;-0.54;100.00;99934.69;5070741;28;20002;-72
2022/01/15 09:01:58;;;;;;;;;;;;;;;-0.90;100.00;99933.53;5071636;28;19924;-72
2022/01/15 09:04:25;;;;;;;;;;;;;;;-0.66;100.00;99933.78;5072933;28;19931;-72
2022/01/15 09:06:52;;;;;;;;;;;;;;;-0.40;100.00;99938.03;5071628;28;19925;-72
2022/01/15 09:09:19;;;;;;;;;;;;;;;-0.63;100.00;99942.16;5071644;28;20294;-72
2022/01/15 09:11:46;;;;;;;;;;;;;;;-0.28;100.00;99929.06;5054943;28;20329;-72
2022/01/15 09:14:13;;;;;;;;;;;;;;;-0.41;100.00;99916.41;5071619;28;20395;-72
2022/01/15 09:16:41;;;;;;;;;;;;;;;0.03;100.00;99928.75;5072777;28;19924;-72
2022/01/15 09:19:09;;;;;;;;;;;;;;;-0.50;100.00;99932.09;5071086;28;19931;-72
2022/01/15 09:21:36;;;;;;;;;;;;;;;0.03;100.00;99926.00;5072735;28;19925;-72
2022/01/15 09:24:03;;;;;;;;;;;;;;;0.29;100.00;99930.16;5071595;28;20414;-72
2022/01/15 09:32:15;;;;;;;;;;;;;;;0.77;100.00;99916.66;5072747;28;19978;-72
2022/01/15 09:34:42;;;;;;;;;;;;;;;0.88;100.00;99908.78;5072629;28;20260;-72
2022/01/15 09:37:09;;;;;;;;;;;;;;;1.13;100.00;99915.94;5072418;28;19925;-72
2022/01/15 09:39:36;;;;;;;;;;;;;;;1.19;100.00;99901.63;5087755;28;19968;-72
2022/01/15 09:42:03;;;;;;;;;;;;;;;1.18;100.00;99905.50;5072583;28;20452;-72
2022/01/15 09:44:32;;;;;;;;;;;;;;;1.15;100.00;99911.69;5072439;28;20390;-72
2022/01/15 09:46:59;;;;;;;;;;;;;;;0.95;100.00;99898.00;5071134;28;20429;-72
2022/01/15 09:49:26;;;;;;;;;;;;;;;1.14;100.00;99896.34;5071896;28;19934;-72
2022/01/15 09:51:54;;;;;;;;;;;;;;;0.89;100.00;99900.19;5075953;28;19924;-72
2022/01/15 09:54:22;;;;;;;;;;;;;;;1.06;100.00;99891.72;5075676;28;20437;-72
2022/01/15 09:56:49;;;;;;;;;;;;;;;1.07;100.00;99882.34;5074589;28;19924;-73
2022/01/15 09:59:18;;;;;;;;;;;;;;;1.08;100.00;99886.69;5075832;28;19925;-72
2022/01/15 10:01:46;;;;;;;;;;;;;;;0.92;100.00;99888.50;5075815;28;19924;-72
2022/01/15 10:04:13;;;;;;;;;;;;;;;1.03;100.00;99877.84;5074699;28;19925;-72
2022/01/15 10:06:59;;;;;;;;;;;;;;;0.72;100.00;99877.53;5075807;28;19936;-72
2022/01/15 10:09:27;;;;;;;;;;;;;;;0.83;100.00;99882.28;5055798;28;19924;-72
2022/01/15 10:11:54;;;;;;;;;;;;;;;0.14;100.00;99884.03;5091244;28;19925;-73
2022/01/15 10:14:31;;;;;;;;;;;;;;;0.58;100.00;99882.50;5074306;28;19924;-72
2022/01/15 10:17:00;;;;;;;;;;;;;;;1.04;100.00;99880.28;5075539;28;19925;-72
2022/01/15 10:19:37;;;;;;;;;;;;;;;1.34;100.00;99875.38;5073803;28;20046;-72
2022/01/15 10:22:12;;;;;;;;;;;;;;;1.48;100.00;99870.34;5073702;28;19974;-72
2022/01/15 10:24:40;;;;;;;;;;;;;;;1.61;100.00;99856.22;5073756;28;20095;-72
2022/01/15 10:27:25;;;;;;;;;;;;;;;1.69;100.00;99860.81;5056744;28;19924;-72
2022/01/15 10:30:05;;;;;;;;;;;;;;;1.81;100.00;99855.28;5074785;28;20291;-72
2022/01/15 10:32:34;;;;;;;;;;;;;;;2.00;100.00;99862.13;5074922;28;20290;-72
2022/01/15 10:35:09;;;;;;;;;;;;;;;1.61;100.00;99856.22;5073403;28;20019;-72
2022/01/15 10:37:46;;;;;;;;;;;;;;;1.17;100.00;99867.31;5074570;28;19924;-73
2022/01/15 10:40:13;;;;;;;;;;;;;;;1.52;100.00;99866.53;5074123;28;20159;-72
2022/01/15 10:42:40;;;;;;;;;;;;;;;1.57;100.00;99866.31;5073124;28;19938;-72
2022/01/15 10:45:12;;;;;;;;;;;;;;;1.52;100.00;99865.72;5074621;28;20369;-72
2022/01/15 10:47:46;;;;;;;;;;;;;;;2.00;100.00;99864.91;5073052;28;19924;-72
2022/01/15 10:50:19;;;;;;;;;;;;;;;2.27;100.00;99866.88;5056282;28;19970;-72
2022/01/15 10:52:46;;;;;;;;;;;;;;;1.90;100.00;99849.63;5073034;28;19924;-72
2022/01/15 10:55:15;;;;;;;;;;;;;;;2.30;100.00;99846.88;5073621;28;19925;-72
2022/01/15 10:57:43;;;;;;;;;;;;;;;2.51;100.00;99861.28;5074597;28;19947;-72
2022/01/15 11:00:18;;;;;;;;;;;;;;;2.30;100.00;99855.16;5074070;28;20364;-72
2022/01/15 11:02:50;;;;;;;;;;;;;;;2.70;100.00;99853.13;5073175;28;19931;-72
2022/01/15 11:05:31;;;;;;;;;;;;;;;2.78;100.00;99854.94;5074445;28;20371;-72
2022/01/15 11:08:03;;;;;;;;;;;;;;;2.81;100.00;99854.25;5056125;28;20040;-72
2022/01/15 11:10:39;;;;;;;;;;;;;;;2.86;100.00;99849.25;5073944;28;19965;-71
2022/01/15 11:13:10;;;;;;;;;;;;;;;2.46;100.00;99847.72;5071918;28;20413;-72
2022/01/15 11:15:38;;;;;;;;;;;;;;;2.83;100.00;99840.91;5072459;28;19924;-72
2022/01/15 11:18:06;;;;;;;;;;;;;;;3.07;100.00;99829.69;5073038;28;20038;-72
2022/01/15 11:20:33;;;;;;;;;;;;;;;3.29;100.00;99834.59;5074053;28;20134;-72
2022/01/15 11:23:01;;;;;;;;;;;;;;;3.16;100.00;99822.03;5072748;28;19925;-72
2022/01/15 11:25:28;;;;;;;;;;;;;;;2.72;100.00;99820.47;5074106;28;19924;-72
2022/01/15 11:27:57;;;;;;;;;;;;;;;3.19;100.00;99818.56;5073968;28;20343;-72
2022/01/15 11:30:24;;;;;;;;;;;;;;;3.29;100.00;99809.72;5073838;28;19930;-72
2022/01/15 11:32:53;;;;;;;;;;;;;;;3.29;100.00;99804.22;5072660;28;19940;-72
2022/01/15 11:35:20;;;;;;;;;;;;;;;2.76;100.00;99802.06;5072761;28;19925;-72
2022/01/15 11:37:56;;;;;;;;;;;;;;;2.88;100.00;99790.94;5072566;28;20375;-72
2022/01/15 11:40:24;;;;;;;;;;;;;;;2.95;100.00;99785.63;5074169;28;20285;-72
2022/01/15 11:42:51;;;;;;;;;;;;;;;3.12;100.00;99790.78;5089289;28;20019;-72
2022/01/15 11:45:34;;;;;;;;;;;;;;;3.51;100.00;99787.78;5072523;28;19931;-72
2022/01/15 11:48:18;;;;;;;;;;;;;;;3.81;100.00;99785.31;5072094;28;19964;-73
2022/01/15 11:50:45;;;;;;;;;;;;;;;3.30;100.00;99778.22;5071865;28;20019;-74
2022/01/15 11:53:32;;;;;;;;;;;;;;;3.72;100.00;99768.94;5072573;28;19931;-72
2022/01/15 11:56:27;;;;;;;;;;;;;;;3.77;100.00;99778.91;5056111;28;19974;-72
2022/01/15 11:58:55;;;;;;;;;;;;;;;3.70;100.00;99782.31;5070589;28;19987;-72
2022/01/15 12:01:39;;;;;;;;;;;;;;;3.17;100.00;99771.97;5072360;28;20383;-72
2022/01/15 12:04:26;;;;;;;;;;;;;;;2.86;100.00;99768.44;5073455;28;19925;-72
2022/01/15 12:07:02;;;;;;;;;;;;;;;3.18;100.00;99770.03;5072221;28;20357;-72
2022/01/15 12:09:33;;;;;;;;;;;;;;;3.16;100.00;99766.81;5072304;28;19932;-72
2022/01/15 12:12:02;;;;;;;;;;;;;;;3.06;100.00;99767.38;5071636;28;19925;-72
2022/01/15 12:14:48;;;;;;;;;;;;;;;3.05;100.00;99761.03;5073396;28;19924;-72
2022/01/15 12:17:24;;;;;;;;;;;;;;;2.93;100.00;99761.13;5072172;28;19988;-72
2022/01/15 12:19:52;;;;;;;;;;;;;;;3.36;100.00;99755.47;5072979;28;19928;-72
2022/01/15 12:22:39;;;;;;;;;;;;;;;3.44;100.00;99750.91;5055589;28;19928;-72
2022/01/15 12:25:07;;;;;;;;;;;;;;;3.48;100.00;99752.56;5073192;28;19925;-72
2022/01/15 12:27:34;;;;;;;;;;;;;;;3.50;100.00;99744.75;5055469;28;19925;-72
2022/01/15 12:30:06;;;;;;;;;;;;;;;3.60;100.00;99743.38;5073216;28;19930;-72
2022/01/15 12:32:38;;;;;;;;;;;;;;;3.70;100.00;99732.56;5072114;28;20009;-72
2022/01/15 12:35:13;;;;;;;;;;;;;;;3.72;100.00;99723.91;5073085;28;19924;-72
2022/01/15 12:38:01;;;;;;;;;;;;;;;4.00;100.00;99729.25;5088225;28;20379;-72
2022/01/15 12:40:31;;;;;;;;;;;;;;;3.89;100.00;99709.66;5072848;28;19928;-72
2022/01/15 12:43:10;;;;;;;;;;;;;;;4.01;100.00;99715.06;5072836;28;19924;-72
2022/01/15 12:45:38;;;;;;;;;;;;;;;3.80;100.00;99709.09;5071473;28;20024;-72
2022/01/15 12:48:07;;;;;;;;;;;;;;;3.68;100.00;99712.78;5072161;28;19924;-72
2022/01/15 12:50:42;;;;;;;;;;;;;;;3.85;100.00;99708.00;5105123;28;20338;-72
2022/01/15 12:53:10;;;;;;;;;;;;;;;3.40;100.00;99703.06;5055273;28;19970;-72
2022/01/15 12:55:37;;;;;;;;;;;;;;;3.53;100.00;99704.53;5055159;28;20384;-72
2022/01/15 12:58:06;;;;;;;;;;;;;;;3.53;100.00;99708.09;5071489;28;19924;-72
2022/01/15 13:00:34;;;;;;;;;;;;;;;3.55;100.00;99696.69;5072488;28;20386;-72
2022/01/15 13:03:06;;;;;;;;;;;;;;;3.72;100.00;99701.81;5071154;28;19999;-72
2022/01/15 13:05:39;;;;;;;;;;;;;;;3.53;100.00;99699.00;5071531;28;20368;-73
2022/01/15 13:08:07;;;;;;;;;;;;;;;3.68;100.00;99695.41;5072735;28;19933;-72
2022/01/15 13:10:45;;;;;;;;;;;;;;;4.00;100.00;99691.31;5071631;28;20384;-73
2022/01/15 13:13:16;;;;;;;;;;;;;;;4.14;100.00;99669.47;5072838;28;20311;-73